Relevés horaires Bierset (Belgique)


Relevés horaires à Bierset - Lundi 05 Juin 2023
Heure UTC1 Température [°C] Vent [km/h] Hum. [%] Pres.4 [hPa] Visi. [Km] Nébu. [octa] Préc.5 [mm] Cond.
2m. Res. Ros. Dir.2 Vit. Moy. Raf.3
23:00 13.7 13.7 10.1 N 5.6 5.6 7.4 79 1020(0.9/3h) 25 0/8 -- --
22:00 15.3 15.3 9.2 N 3.7 5.6 7.4 67 1019.6(1.0/3h) 25 0/8 -- --
21:00 16.3 16.3 8.2 N 3.7 9.3 13.0 59 1019.3(0.9/3h) 25 0/8 -- --
20:00 17.5 17.5 8.0 N 5.6 7.4 11.1 54 1018.8(0.3/3h) 25 0/8 -- --
19:00 20.0 20.0 7.7 NNE 7.4 9.3 13.0 45 1018.2(-0.4/3h) 25 0/8 -- --
18:00 21.6 21.6 7.7 N 9.3 11.1 18.5 41 1018(-0.8/3h) 25 0/8 0/12h
--
17:00 22.5 22.5 5.8 NNE 9.3 11.1 16.7 34 1018.1(-0.9/3h) 25 0/8 -- --
16:00 22.9 22.9 5.8 NNE 9.3 11.1 16.7 33 1018.5(-1.1/3h) 22 1/8 -- --
15:00 22.8 22.8 7.4 NNE 11.1 11.1 18.5 37 1018.7(-1.1/3h) 25 0/8 -- --
14:00 22.8 22.8 6.4 NE 11.1 11.1 18.5 35 1019(-1.2/3h) 25 0/8 -- --
13:00 22.4 22.4 8.3 NNE 9.3 11.1 16.7 40 1019.5(-0.9/3h) 25 0/8 -- --
12:00 21.5 21.5 6.3 NNE 9.3 11.1 16.7 37 1020(-0.7/3h) 25 0/8 0/6h
--
11:00 21.2 21.2 7.7 NE 9.3 9.3 14.8 42 1020.3(-0.5/3h) 25 0/8 -- --
10:00 19.7 19.7 10.0 N 9.3 9.3 13.0 54 1020.7(0.2/3h) 22 0/8 -- --
09:00 18.0 18.0 9.9 NNE 7.4 7.4 11.1 59 1021(0.3/3h) 22 0/8 -- --
08:00 16.2 16.2 10.0 N 5.6 7.4 9.3 67 1021.2(0.4/3h) 22 0/8 -- --
07:00 14.3 14.3 9.7 NNE 5.6 5.6 9.3 74 1021.3(0.6/3h) 20 0/8 -- --
06:00 12.7 12.7 9.3 NNE 5.6 5.6 7.4 80 1021.1(0.2/3h) 20 0/8 0/12h
--
05:00 10.9 10.9 8.4 NNE 3.7 3.7 7.4 85 1021.2(-0.1/3h) 20 0/8 -- --
04:00 9.8 9.8 7.9 N 3.7 3.7 5.6 88 1021(-0.6/3h) 20 0/8 -- --
03:00 10.0 10.0 7.8 N 3.7 5.6 7.4 86 1021.1(-0.6/3h) 20 0/8 -- --
02:00 10.9 10.6 8.0 NNE 5.6 5.6 7.4 82 1021.3(0.2/3h) 20 0/8 -- --
01:00 11.5 11.3 7.3 NE 5.6 5.6 7.4 75 1021.4(0.0/3h) 20 0/8 -- --
00:00 12.5 12.4 6.2 N 5.6 9.3 13.0 65 1021.5(0.4/3h) 20 0/8 0/6h
0/24h
--

1 Coordinated Universal Time. Actuellement il est 02:00 locale et 00:00 UTC.

2 Le vent souffle depuis la direction indiquée vers la direction oposée.

3 Les rafales max. sont disponible 40 min après l'heure du relevé.

4 Pour les stations d'altitude (plus de 600m) le géopotentiel du niveau le plus proche de la pression obligatoire est indiqué.

5 Les stations disposant d'un diffuseur peuvent indiquer "trace". Cela signifie que des précipitations ont touchés le sol mais que la quantité est inférieure à 0.1 mm.

Récapitulatif de la journée
Température [°C] Vent [km/h] Ensoleillement4 [h] Precipitations totale5 [mm] Pression [Hpa]
Min1 Max.2 Moy.3 Max. Min Max.
9.6 23.4 8 18.5 0 h 0 min 0 1018.0 1021.5

1 Température minimale relevée entre 18:00 UTC la veille et 18:00 UTC le jour donné.

2 Température maximale relevée entre 06:00 UTC le jour donné et 06:00 UTC le lendemain.

3 Vent moyen de la journée basé sur les relevés horaires.

4 Ensoleillement en heures relevé entre 06:00 UTC la veille et 06:00 UTC le jour donné.

5 Précipitations totales tombées entre 06:00 UTC la jour donné et 06:00 UTC le lendemain.

Graphiques horaires